createdAt,value
2023-05-14T00:00:49.860Z,78.05
2023-05-14T00:03:16.474Z,78.21
2023-05-14T00:05:43.117Z,78.35
2023-05-14T00:08:09.525Z,78.06
2023-05-14T00:10:35.962Z,77.94
2023-05-14T00:13:02.452Z,77.83
2023-05-14T00:15:28.954Z,78.02
2023-05-14T00:17:55.596Z,78.13
2023-05-14T00:20:22.194Z,78.34
2023-05-14T00:22:48.726Z,78.27
2023-05-14T00:25:15.140Z,78.23
2023-05-14T00:27:41.565Z,78.21
2023-05-14T00:30:08.349Z,78.33
2023-05-14T00:32:34.987Z,78.30
2023-05-14T00:35:03.107Z,78.25
2023-05-14T00:37:29.811Z,78.33
2023-05-14T00:39:56.233Z,78.15
2023-05-14T00:42:22.649Z,78.34
2023-05-14T00:44:49.073Z,77.98
2023-05-14T00:47:15.909Z,77.91
2023-05-14T00:49:42.752Z,78.05
2023-05-14T00:52:10.682Z,77.98
2023-05-14T00:54:37.372Z,78.35
2023-05-14T00:57:06.093Z,78.29
2023-05-14T00:59:32.885Z,78.46
2023-05-14T01:01:59.361Z,78.07
2023-05-14T01:04:26.048Z,77.98
2023-05-14T01:07:09.389Z,78.28
2023-05-14T01:09:41.747Z,78.09
2023-05-14T01:12:27.230Z,78.14
2023-05-14T01:15:11.229Z,78.16
2023-05-14T01:17:43.438Z,78.44
2023-05-14T01:20:10.633Z,78.44
2023-05-14T01:22:37.699Z,78.38
2023-05-14T01:25:05.989Z,78.21
2023-05-14T01:27:49.816Z,77.98
2023-05-14T01:30:26.890Z,78.22
2023-05-14T01:32:56.294Z,77.99
2023-05-14T01:35:26.900Z,78.13
2023-05-14T01:37:59.486Z,78.05
2023-05-14T01:40:26.788Z,77.83
2023-05-14T01:42:54.842Z,77.89
2023-05-14T01:45:21.929Z,78.08
2023-05-14T01:47:48.597Z,78.35
2023-05-14T01:50:15.848Z,78.48
2023-05-14T01:52:42.335Z,78.09
2023-05-14T01:55:09.344Z,77.86
2023-05-14T01:57:36.026Z,78.37
2023-05-14T02:00:03.884Z,78.39
2023-05-14T02:02:40.605Z,78.07
2023-05-14T02:05:09.991Z,77.89
2023-05-14T02:07:36.434Z,78.10
2023-05-14T02:10:02.842Z,78.27
2023-05-14T02:12:29.559Z,78.11
2023-05-14T02:14:56.113Z,78.55
2023-05-14T02:17:22.665Z,78.84
2023-05-14T02:19:49.245Z,78.83
2023-05-14T02:22:15.701Z,78.73
2023-05-14T02:24:42.542Z,78.11
2023-05-14T02:27:08.983Z,78.65
2023-05-14T02:29:35.412Z,78.82
2023-05-14T02:32:01.860Z,78.53
2023-05-14T02:34:28.629Z,78.33
2023-05-14T02:36:55.067Z,78.55
2023-05-14T02:39:21.542Z,78.62
2023-05-14T02:41:47.987Z,78.69
2023-05-14T02:44:14.396Z,78.40
2023-05-14T02:46:41.362Z,78.58
2023-05-14T02:49:07.861Z,78.71
2023-05-14T02:51:34.290Z,78.29
2023-05-14T02:54:00.825Z,78.73
2023-05-14T02:56:28.327Z,78.49
2023-05-14T02:58:54.856Z,78.50
2023-05-14T03:01:21.965Z,78.41
2023-05-14T03:03:49.319Z,78.57
2023-05-14T03:06:16.170Z,78.42
2023-05-14T03:08:42.664Z,78.80
2023-05-14T03:11:09.088Z,78.73
2023-05-14T03:13:35.527Z,79.06
2023-05-14T03:16:01.964Z,78.93
2023-05-14T03:18:30.513Z,78.84
2023-05-14T03:20:57.031Z,78.51
2023-05-14T03:23:23.497Z,78.48
2023-05-14T03:25:52.455Z,78.28
2023-05-14T03:28:18.916Z,78.53
2023-05-14T03:30:45.426Z,78.60
2023-05-14T03:33:12.211Z,78.33
2023-05-14T03:35:39.124Z,78.02
2023-05-14T03:38:05.999Z,78.67
2023-05-14T03:40:34.190Z,78.51
2023-05-14T03:43:00.709Z,78.26
2023-05-14T03:45:28.605Z,78.00
2023-05-14T03:47:55.133Z,78.54
2023-05-14T03:50:23.022Z,78.15
2023-05-14T03:52:50.583Z,78.16
2023-05-14T03:55:17.052Z,78.17
2023-05-14T03:57:43.473Z,78.15
2023-05-14T04:00:11.424Z,78.09
2023-05-14T04:02:43.917Z,78.04
2023-05-14T04:05:10.684Z,78.10
2023-05-14T04:07:37.140Z,78.34
2023-05-14T04:10:04.897Z,78.38
2023-05-14T04:12:34.135Z,78.54
2023-05-14T04:15:01.384Z,78.32
2023-05-14T04:17:28.004Z,78.34
2023-05-14T04:19:54.430Z,78.34
2023-05-14T04:22:20.854Z,78.76
2023-05-14T04:24:47.282Z,78.75
2023-05-14T04:27:23.986Z,78.33
2023-05-14T04:29:50.880Z,78.78
2023-05-14T04:32:18.059Z,78.55
2023-05-14T04:34:44.577Z,79.11
2023-05-14T04:37:11.019Z,78.94
2023-05-14T04:39:38.258Z,79.05
2023-05-14T04:42:05.301Z,79.14
2023-05-14T04:44:31.721Z,79.28
2023-05-14T04:46:58.118Z,79.19
2023-05-14T04:49:24.509Z,79.57
2023-05-14T04:51:51.114Z,78.83
2023-05-14T04:54:17.635Z,79.22
2023-05-14T04:56:44.106Z,79.36
2023-05-14T04:59:10.581Z,79.09
2023-05-14T05:01:37.229Z,79.10
2023-05-14T05:04:03.796Z,79.27
2023-05-14T05:06:30.228Z,78.96
2023-05-14T05:08:56.626Z,79.15
2023-05-14T05:11:23.038Z,78.89
2023-05-14T05:13:49.454Z,78.31
2023-05-14T05:16:16.093Z,79.06
2023-05-14T05:18:44.432Z,79.30
2023-05-14T05:21:10.986Z,79.31
2023-05-14T05:23:37.426Z,79.07
2023-05-14T05:26:03.922Z,79.08
2023-05-14T05:28:30.340Z,78.58
2023-05-14T05:30:56.858Z,79.45
2023-05-14T05:33:23.317Z,79.02
2023-05-14T05:35:50.136Z,79.31
2023-05-14T05:38:18.264Z,78.99
2023-05-14T05:40:44.744Z,79.13
2023-05-14T05:43:11.338Z,78.95
2023-05-14T05:45:37.721Z,78.45
2023-05-14T05:48:04.397Z,78.28
2023-05-14T05:50:31.779Z,78.77
2023-05-14T05:53:01.001Z,78.51
2023-05-14T05:55:28.034Z,78.34
2023-05-14T05:57:54.470Z,78.61
2023-05-14T06:00:21.479Z,78.69
2023-05-14T06:02:49.399Z,78.60
2023-05-14T06:05:16.002Z,79.04
2023-05-14T06:07:42.483Z,78.77
2023-05-14T06:10:08.985Z,78.44
2023-05-14T06:12:35.424Z,78.02
2023-05-14T06:15:01.900Z,77.52
2023-05-14T06:17:28.340Z,77.44
2023-05-14T06:19:54.780Z,76.93
2023-05-14T06:22:21.225Z,76.81
2023-05-14T06:24:47.990Z,77.24
2023-05-14T06:27:14.488Z,77.13
2023-05-14T06:29:40.930Z,77.20
2023-05-14T06:32:07.955Z,77.00
2023-05-14T06:34:34.496Z,76.98
2023-05-14T06:37:02.742Z,76.83
2023-05-14T06:39:29.301Z,76.79
2023-05-14T06:41:55.769Z,76.72
2023-05-14T06:44:23.271Z,76.64
2023-05-14T06:46:49.712Z,76.39
2023-05-14T06:49:16.279Z,76.55
2023-05-14T06:51:42.957Z,76.54
2023-05-14T06:54:09.404Z,76.09
2023-05-14T06:56:35.824Z,75.36
2023-05-14T06:59:02.309Z,74.48
2023-05-14T07:01:28.837Z,76.05
2023-05-14T07:03:55.341Z,75.54
2023-05-14T07:06:22.453Z,74.46
2023-05-14T07:08:49.018Z,74.03
2023-05-14T07:11:15.587Z,73.67
2023-05-14T07:13:42.680Z,73.26
2023-05-14T07:16:10.233Z,73.10
2023-05-14T07:18:37.110Z,72.94
2023-05-14T07:21:06.626Z,72.62
2023-05-14T07:23:36.481Z,72.12
2023-05-14T07:26:03.507Z,72.71
2023-05-14T07:28:29.964Z,71.45
2023-05-14T07:30:56.651Z,71.94
2023-05-14T07:33:23.735Z,72.09
2023-05-14T07:35:50.783Z,70.75
2023-05-14T07:38:19.823Z,70.88
2023-05-14T07:40:46.224Z,70.40
2023-05-14T07:43:13.079Z,69.53
2023-05-14T07:45:39.704Z,70.25
2023-05-14T07:48:06.451Z,70.68
2023-05-14T07:50:33.021Z,70.51
2023-05-14T07:52:59.512Z,69.26
2023-05-14T07:55:25.981Z,69.18
2023-05-14T07:57:52.426Z,70.17
2023-05-14T08:00:19.097Z,69.51
2023-05-14T08:02:45.916Z,68.77
2023-05-14T08:05:12.609Z,66.96
2023-05-14T08:07:39.011Z,66.85
2023-05-14T08:10:07.728Z,66.43
2023-05-14T08:12:34.313Z,66.55
2023-05-14T08:15:00.736Z,66.81
2023-05-14T08:17:27.281Z,67.48
2023-05-14T08:19:54.047Z,68.32
2023-05-14T08:22:20.564Z,68.65
2023-05-14T08:24:47.036Z,67.93
2023-05-14T08:27:13.467Z,68.12
2023-05-14T08:29:39.889Z,68.92
2023-05-14T08:32:15.950Z,68.76
2023-05-14T08:34:49.596Z,68.81
2023-05-14T08:37:16.091Z,69.24
2023-05-14T08:39:42.511Z,69.16
2023-05-14T08:42:11.071Z,69.50
2023-05-14T08:44:53.965Z,69.15
2023-05-14T08:47:22.108Z,68.58
2023-05-14T08:49:54.807Z,68.95
2023-05-14T08:52:22.287Z,68.65
2023-05-14T08:54:51.085Z,68.95
2023-05-14T08:57:18.756Z,68.68
2023-05-14T08:59:45.288Z,68.60
2023-05-14T09:02:15.016Z,68.54
2023-05-14T09:04:42.369Z,67.71
2023-05-14T09:07:09.051Z,66.66
2023-05-14T09:09:35.616Z,65.84
2023-05-14T09:12:02.245Z,65.60
2023-05-14T09:14:28.718Z,64.53
2023-05-14T09:16:55.446Z,65.44
2023-05-14T09:19:21.970Z,64.42
2023-05-14T09:21:49.575Z,64.56
2023-05-14T09:24:24.181Z,65.18
2023-05-14T09:26:52.556Z,64.23
2023-05-14T09:29:19.132Z,63.24
2023-05-14T09:31:45.850Z,62.42
2023-05-14T09:34:23.930Z,61.91
2023-05-14T09:36:50.405Z,61.41
2023-05-14T09:39:17.583Z,62.17
2023-05-14T09:41:43.974Z,62.05
2023-05-14T09:44:10.828Z,60.93
2023-05-14T09:46:37.242Z,61.40
2023-05-14T09:49:03.663Z,61.39
2023-05-14T09:51:34.409Z,60.78
2023-05-14T09:54:01.330Z,61.33
2023-05-14T09:56:27.785Z,60.81
2023-05-14T09:58:54.982Z,60.09
2023-05-14T10:01:22.692Z,60.45
2023-05-14T10:03:49.829Z,61.05
2023-05-14T10:06:17.778Z,61.99
2023-05-14T10:08:45.391Z,61.44
2023-05-14T10:11:25.588Z,60.82
2023-05-14T10:14:39.293Z,60.91
2023-05-14T10:17:06.481Z,58.86
2023-05-14T10:19:37.271Z,60.02
2023-05-14T10:22:05.510Z,58.93
2023-05-14T10:24:33.137Z,59.01
2023-05-14T10:27:00.169Z,58.54
2023-05-14T10:29:34.819Z,58.23
2023-05-14T10:32:06.246Z,58.90
2023-05-14T10:34:33.413Z,58.79
2023-05-14T10:37:02.025Z,58.82
2023-05-14T10:39:47.094Z,60.25
2023-05-14T10:42:21.753Z,60.03
2023-05-14T10:45:15.306Z,59.99
2023-05-14T10:47:47.045Z,61.68
2023-05-14T10:50:17.408Z,60.49
2023-05-14T10:52:44.670Z,60.96
2023-05-14T10:55:15.916Z,60.62
2023-05-14T10:57:45.274Z,60.16
2023-05-14T11:00:14.000Z,57.87
2023-05-14T11:02:44.880Z,57.75
2023-05-14T11:05:17.510Z,58.91
2023-05-14T11:07:51.142Z,59.92
2023-05-14T11:10:19.607Z,59.36
2023-05-14T11:12:48.575Z,57.98
2023-05-14T11:15:17.579Z,57.87
2023-05-14T11:17:45.479Z,57.46
2023-05-14T11:20:12.757Z,57.45
2023-05-14T11:22:41.018Z,57.25
2023-05-14T11:25:08.606Z,57.84
2023-05-14T11:27:37.382Z,58.17
2023-05-14T11:30:04.750Z,58.80
2023-05-14T11:32:35.013Z,59.40
2023-05-14T11:35:01.493Z,58.26
2023-05-14T11:37:27.982Z,57.53
2023-05-14T11:39:55.740Z,57.20
2023-05-14T11:42:23.611Z,55.71
2023-05-14T11:44:54.179Z,56.03
2023-05-14T11:47:21.795Z,56.29
2023-05-14T11:49:49.017Z,57.24
2023-05-14T11:52:16.623Z,57.38
2023-05-14T11:54:44.263Z,60.41
2023-05-14T11:57:13.496Z,61.00
2023-05-14T11:59:40.522Z,59.67
2023-05-14T12:02:16.108Z,61.18
2023-05-14T12:04:43.501Z,59.15
2023-05-14T12:07:12.208Z,58.44
2023-05-14T12:09:45.093Z,58.59
2023-05-14T12:12:12.656Z,57.54
2023-05-14T12:14:41.638Z,56.52
2023-05-14T12:17:14.207Z,57.76
2023-05-14T12:19:42.542Z,60.40
2023-05-14T12:22:10.661Z,63.25
2023-05-14T12:24:39.125Z,63.81
2023-05-14T12:27:06.643Z,64.49
2023-05-14T12:29:36.873Z,64.59
2023-05-14T12:32:08.536Z,64.76
2023-05-14T12:34:37.322Z,64.93
2023-05-14T12:37:04.933Z,63.90
2023-05-14T12:39:34.008Z,64.13
2023-05-14T12:42:01.346Z,62.01
2023-05-14T12:44:28.251Z,61.90
2023-05-14T12:46:54.864Z,59.39
2023-05-14T12:49:21.334Z,56.28
2023-05-14T12:51:47.731Z,58.26
2023-05-14T12:54:15.800Z,58.68
2023-05-14T12:56:42.774Z,59.80
2023-05-14T12:59:09.559Z,58.84
2023-05-14T13:01:36.695Z,58.17
2023-05-14T13:04:03.425Z,57.62
2023-05-14T13:06:29.865Z,57.24
2023-05-14T13:08:56.691Z,59.14
2023-05-14T13:11:23.095Z,59.28
2023-05-14T13:13:49.493Z,60.54
2023-05-14T13:16:16.881Z,59.92
2023-05-14T13:18:43.486Z,59.10
2023-05-14T13:21:09.927Z,61.47
2023-05-14T13:23:36.343Z,60.33
2023-05-14T13:26:02.776Z,64.21
2023-05-14T13:28:29.215Z,65.20
2023-05-14T13:31:14.282Z,66.55
2023-05-14T13:33:43.405Z,66.94
2023-05-14T13:36:11.684Z,67.38
2023-05-14T13:38:38.374Z,68.92
2023-05-14T13:41:05.466Z,69.82
2023-05-14T13:43:33.514Z,70.68
2023-05-14T13:46:01.089Z,71.73
2023-05-14T13:48:27.825Z,71.29
2023-05-14T13:50:54.847Z,70.46
2023-05-14T13:53:22.960Z,69.67
2023-05-14T13:55:50.196Z,71.13
2023-05-14T13:58:16.696Z,71.03
2023-05-14T14:00:43.133Z,71.35
2023-05-14T14:03:09.634Z,71.47
2023-05-14T14:05:36.487Z,72.18
2023-05-14T14:08:13.184Z,72.63
2023-05-14T14:10:48.915Z,71.59
2023-05-14T14:13:15.458Z,71.95
2023-05-14T14:15:42.511Z,70.63
2023-05-14T14:18:08.948Z,67.16
2023-05-14T14:20:35.401Z,61.74
2023-05-14T14:23:01.890Z,53.85
2023-05-14T14:25:28.500Z,47.65
2023-05-14T14:27:54.927Z,43.22
2023-05-14T14:30:21.386Z,40.89
2023-05-14T14:32:49.187Z,41.00
2023-05-14T14:35:18.248Z,38.41
2023-05-14T14:37:48.946Z,38.95
2023-05-14T14:40:16.505Z,37.63
2023-05-14T14:42:43.255Z,35.40
2023-05-14T14:45:10.157Z,35.72
2023-05-14T14:47:36.667Z,33.57
2023-05-14T14:50:03.304Z,33.30
2023-05-14T14:52:29.817Z,32.11
2023-05-14T14:54:56.431Z,33.78
2023-05-14T14:57:23.053Z,33.28
2023-05-14T14:59:49.596Z,31.03
2023-05-14T15:02:16.199Z,32.49
2023-05-14T15:04:42.870Z,35.56
2023-05-14T15:07:09.444Z,34.60
2023-05-14T15:09:35.965Z,37.91
2023-05-14T15:12:02.439Z,37.14
2023-05-14T15:14:28.899Z,41.60
2023-05-14T15:16:55.328Z,43.64
2023-05-14T15:19:21.937Z,42.45
2023-05-14T15:21:48.448Z,43.46
2023-05-14T15:24:14.888Z,43.29
2023-05-14T15:26:41.825Z,46.69
2023-05-14T15:29:08.373Z,48.68
2023-05-14T15:31:34.900Z,49.20
2023-05-14T15:34:01.504Z,49.25
2023-05-14T15:36:28.596Z,50.53
2023-05-14T15:38:55.070Z,50.53
2023-05-14T15:41:22.680Z,50.88
2023-05-14T15:43:49.119Z,51.37
2023-05-14T15:46:15.746Z,54.73
2023-05-14T15:48:42.185Z,54.98
2023-05-14T15:51:08.623Z,55.11
2023-05-14T15:53:35.156Z,56.05
2023-05-14T15:56:02.340Z,55.13
2023-05-14T15:58:28.742Z,56.21
2023-05-14T16:00:55.164Z,57.54
2023-05-14T16:03:21.657Z,56.09
2023-05-14T16:05:48.565Z,57.01
2023-05-14T16:08:15.005Z,58.07
2023-05-14T16:10:41.500Z,59.07
2023-05-14T16:13:07.958Z,58.05
2023-05-14T16:15:34.400Z,57.59
2023-05-14T16:18:00.888Z,58.93
2023-05-14T16:20:27.327Z,58.16
2023-05-14T16:22:53.773Z,58.58
2023-05-14T16:25:20.292Z,58.16
2023-05-14T16:27:46.782Z,59.82
2023-05-14T16:30:13.373Z,58.41
2023-05-14T16:32:41.834Z,57.83
2023-05-14T16:35:08.867Z,57.91
2023-05-14T16:37:35.768Z,57.84
2023-05-14T16:40:02.305Z,58.63
2023-05-14T16:42:28.861Z,56.98
2023-05-14T16:44:55.294Z,57.53
2023-05-14T16:47:21.810Z,56.88
2023-05-14T16:49:48.515Z,57.34
2023-05-14T16:52:15.280Z,55.44
2023-05-14T16:54:41.709Z,55.03
2023-05-14T16:57:08.139Z,56.29
2023-05-14T16:59:34.572Z,57.75
2023-05-14T17:02:01.231Z,57.18
2023-05-14T17:04:27.881Z,57.51
2023-05-14T17:06:55.217Z,57.69
2023-05-14T17:09:21.666Z,58.48
2023-05-14T17:11:48.077Z,57.91
2023-05-14T17:14:14.839Z,58.66
2023-05-14T17:16:42.272Z,59.05
2023-05-14T17:19:08.759Z,58.85
2023-05-14T17:21:35.200Z,59.00
2023-05-14T17:24:01.626Z,59.16
2023-05-14T17:26:28.047Z,58.45
2023-05-14T17:28:54.544Z,59.49
2023-05-14T17:31:22.196Z,59.52
2023-05-14T17:33:48.992Z,60.27
2023-05-14T17:36:15.462Z,61.26
2023-05-14T17:38:42.051Z,61.17
2023-05-14T17:41:08.523Z,62.51
2023-05-14T17:43:35.023Z,62.61
2023-05-14T17:46:01.531Z,62.08
2023-05-14T17:48:27.958Z,63.71
2023-05-14T17:50:54.417Z,64.95
2023-05-14T17:53:21.314Z,65.55
2023-05-14T17:55:48.039Z,64.76
2023-05-14T17:58:15.470Z,65.17
2023-05-14T18:00:42.486Z,65.95
2023-05-14T18:03:09.279Z,66.20
2023-05-14T18:05:36.280Z,66.69
2023-05-14T18:08:03.241Z,66.97
2023-05-14T18:10:29.764Z,66.72
2023-05-14T18:12:56.589Z,66.33
2023-05-14T18:15:25.437Z,66.98
2023-05-14T18:17:52.658Z,67.43
2023-05-14T18:20:19.606Z,67.79
2023-05-14T18:22:46.110Z,68.21
2023-05-14T18:25:12.906Z,68.51
2023-05-14T18:27:44.294Z,69.38
2023-05-14T18:30:15.245Z,69.02
2023-05-14T18:32:44.187Z,68.88
2023-05-14T18:35:12.243Z,69.03
2023-05-14T18:37:39.047Z,68.74
2023-05-14T18:40:06.964Z,68.33
2023-05-14T18:42:34.257Z,69.02
2023-05-14T18:45:01.372Z,69.21
2023-05-14T18:47:27.883Z,69.26
2023-05-14T18:49:55.766Z,69.50
2023-05-14T18:52:26.126Z,70.13
2023-05-14T18:54:53.665Z,69.87
2023-05-14T18:57:20.948Z,69.87
2023-05-14T18:59:47.409Z,69.92
2023-05-14T19:02:13.828Z,69.83
2023-05-14T19:04:51.280Z,70.36
2023-05-14T19:07:19.315Z,70.38
2023-05-14T19:09:45.779Z,70.67
2023-05-14T19:12:12.615Z,70.87
2023-05-14T19:14:39.040Z,70.85
2023-05-14T19:17:05.753Z,70.92
2023-05-14T19:19:32.552Z,71.33
2023-05-14T19:21:59.052Z,71.39
2023-05-14T19:24:25.790Z,71.15
2023-05-14T19:26:52.417Z,71.61
2023-05-14T19:29:18.834Z,71.85
2023-05-14T19:31:45.316Z,71.98
2023-05-14T19:34:11.761Z,71.82
2023-05-14T19:36:38.230Z,72.04
2023-05-14T19:39:04.658Z,72.16
2023-05-14T19:41:31.102Z,71.96
2023-05-14T19:43:57.523Z,72.36
2023-05-14T19:46:24.132Z,72.24
2023-05-14T19:48:50.636Z,71.58
2023-05-14T19:51:17.031Z,71.82
2023-05-14T19:53:43.520Z,72.10
2023-05-14T19:56:10.901Z,72.31
2023-05-14T19:58:37.401Z,72.54
2023-05-14T20:01:04.320Z,72.58
2023-05-14T20:03:30.912Z,72.46
2023-05-14T20:05:57.906Z,71.92
2023-05-14T20:08:24.837Z,71.53
2023-05-14T20:10:51.286Z,72.70
2023-05-14T20:13:17.722Z,73.18
2023-05-14T20:15:44.286Z,73.49
2023-05-14T20:18:10.732Z,72.80
2023-05-14T20:20:37.350Z,72.68
2023-05-14T20:23:03.832Z,72.11
2023-05-14T20:25:32.579Z,73.04
2023-05-14T20:28:00.335Z,72.88
2023-05-14T20:30:27.686Z,73.21
2023-05-14T20:32:54.131Z,73.64
2023-05-14T20:35:20.668Z,73.64
2023-05-14T20:37:47.251Z,73.58
2023-05-14T20:40:13.839Z,73.07
2023-05-14T20:42:40.672Z,73.39
2023-05-14T20:45:07.791Z,73.36
2023-05-14T20:47:35.623Z,73.36
2023-05-14T20:50:02.213Z,73.77
2023-05-14T20:52:28.676Z,73.92
2023-05-14T20:54:59.453Z,74.05
2023-05-14T20:57:28.616Z,73.73
2023-05-14T20:59:55.015Z,73.56
2023-05-14T21:02:21.571Z,73.91
2023-05-14T21:04:48.228Z,73.60
2023-05-14T21:07:14.796Z,73.26
2023-05-14T21:09:41.369Z,73.44
2023-05-14T21:12:08.220Z,73.00
2023-05-14T21:14:34.689Z,73.05
2023-05-14T21:17:01.163Z,73.37
2023-05-14T21:19:27.600Z,74.54
2023-05-14T21:21:54.145Z,74.49
2023-05-14T21:24:20.595Z,74.56
2023-05-14T21:26:47.073Z,74.32
2023-05-14T21:29:13.493Z,74.30
2023-05-14T21:31:39.989Z,73.82
2023-05-14T21:34:06.530Z,73.63
2023-05-14T21:36:33.049Z,74.39
2023-05-14T21:38:59.516Z,73.73
2023-05-14T21:41:26.278Z,74.45
2023-05-14T21:43:52.847Z,75.02
2023-05-14T21:46:19.432Z,74.90
2023-05-14T21:48:45.937Z,75.06
2023-05-14T21:51:12.438Z,75.51
2023-05-14T21:53:38.903Z,74.57
2023-05-14T21:56:06.038Z,74.41
2023-05-14T21:58:32.505Z,74.24
2023-05-14T22:00:58.937Z,74.30
2023-05-14T22:03:25.459Z,74.71
2023-05-14T22:05:51.954Z,74.62
2023-05-14T22:08:18.470Z,75.07
2023-05-14T22:10:46.811Z,75.55
2023-05-14T22:13:13.300Z,76.77
2023-05-14T22:15:39.791Z,77.16
2023-05-14T22:18:06.852Z,77.14
2023-05-14T22:20:33.454Z,77.16
2023-05-14T22:22:59.858Z,76.49
2023-05-14T22:25:26.507Z,75.98
2023-05-14T22:27:53.212Z,75.79
2023-05-14T22:30:19.651Z,75.58
2023-05-14T22:32:46.099Z,75.72
2023-05-14T22:35:12.670Z,75.69
2023-05-14T22:37:39.109Z,75.33
2023-05-14T22:40:07.418Z,74.95
2023-05-14T22:42:33.818Z,75.51
2023-05-14T22:45:00.248Z,75.83
2023-05-14T22:47:26.878Z,75.96
2023-05-14T22:49:53.331Z,75.63
2023-05-14T22:52:19.791Z,75.38
2023-05-14T22:54:46.648Z,74.99
2023-05-14T22:57:13.124Z,75.45
2023-05-14T22:59:39.677Z,76.11
2023-05-14T23:02:06.827Z,76.26
2023-05-14T23:04:33.444Z,76.21
2023-05-14T23:07:00.020Z,76.03
2023-05-14T23:09:26.502Z,75.56
2023-05-14T23:11:52.933Z,76.37
2023-05-14T23:14:19.648Z,76.39
2023-05-14T23:16:46.194Z,76.23
2023-05-14T23:19:12.874Z,75.68
2023-05-14T23:21:39.462Z,76.18
2023-05-14T23:24:06.183Z,76.84
2023-05-14T23:26:32.717Z,76.76
2023-05-14T23:28:59.218Z,76.18
2023-05-14T23:31:25.824Z,75.87
2023-05-14T23:33:52.256Z,76.09
2023-05-14T23:36:18.854Z,76.18
2023-05-14T23:38:45.791Z,75.99
2023-05-14T23:41:12.248Z,76.18
2023-05-14T23:43:38.684Z,76.24
2023-05-14T23:46:05.329Z,76.31
2023-05-14T23:48:32.047Z,76.39
2023-05-14T23:50:58.522Z,77.03
2023-05-14T23:53:24.969Z,76.18
2023-05-14T23:55:51.506Z,76.44
2023-05-14T23:58:18.058Z,76.94
